Time;durP1;ratioP1;P1;durP2;ratioP2;P2;SDS_P1;SDS_P2;PMS_P1;PMS_P2;Temp;Humidity;BMP_temperature;BMP_pressure;BME280_temperature;BME280_humidity;BME280_pressure;Samples;Min_cycle;Max_cycle;Signal;HPM_P1;HPM_P2
2022/06/03 05:01:05;;;;;;;5.47;5.03;;;17.30;97.20;;;;;;1714917;28;20186;-72
2022/06/03 05:02:44;;;;;;;4.90;4.50;;;17.40;97.20;;;;;;1714663;28;20202;-71
2022/06/03 05:04:06;;;;;;;5.55;5.05;;;17.40;97.20;;;;;;1714845;28;20217;-72
2022/06/03 05:05:50;;;;;;;4.97;4.47;;;17.40;97.20;;;;;;1710287;28;20253;-72
2022/06/03 05:07:17;;;;;;;5.13;4.72;;;17.50;97.20;;;;;;1714433;28;20210;-71
2022/06/03 05:08:55;;;;;;;5.63;5.22;;;17.50;97.20;;;;;;1701828;28;20211;-72
2022/06/03 05:10:18;;;;;;;4.90;4.50;;;17.50;97.20;;;;;;1714731;28;20866;-72
2022/06/03 05:11:47;;;;;;;5.85;5.38;;;17.40;97.20;;;;;;1700570;29;20210;-73
2022/06/03 05:13:17;;;;;;;6.38;5.65;;;17.40;97.20;;;;;;1700424;29;20219;-72
2022/06/03 05:14:55;;;;;;;5.60;5.20;;;17.40;97.20;;;;;;1702329;28;20215;-71
2022/06/03 05:16:25;;;;;;;5.43;5.03;;;17.50;97.20;;;;;;1714642;28;20659;-72
2022/06/03 05:18:11;;;;;;;5.18;4.78;;;17.50;97.20;;;;;;1714420;28;20210;-72
2022/06/03 05:19:46;;;;;;;5.57;5.07;;;17.60;97.20;;;;;;1713806;28;20229;-72
2022/06/03 05:21:06;;;;;;;5.40;5.00;;;17.60;97.20;;;;;;1713856;28;20297;-72
2022/06/03 05:22:34;;;;;;;5.90;5.30;;;17.60;97.20;;;;;;1714515;28;20209;-71
2022/06/03 05:23:51;;;;;;;6.00;5.47;;;17.70;97.20;;;;;;1714623;28;20210;-72
2022/06/03 05:25:21;;;;;;;5.85;5.40;;;17.70;97.20;;;;;;1714290;28;22070;-72
2022/06/03 05:26:41;;;;;;;7.85;5.25;;;17.70;97.20;;;;;;1713624;28;20733;-72
2022/06/03 05:28:04;;;;;;;6.13;5.63;;;17.70;97.20;;;;;;1714641;28;20210;-72
2022/06/03 05:29:20;;;;;;;5.50;5.10;;;17.70;97.20;;;;;;1715430;28;20642;-72
2022/06/03 05:30:47;;;;;;;5.53;4.90;;;17.80;97.20;;;;;;1714411;28;20595;-72
2022/06/03 05:32:24;;;;;;;5.38;4.95;;;17.80;97.20;;;;;;1707807;29;20203;-72
2022/06/03 05:33:49;;;;;;;5.30;4.90;;;17.90;97.20;;;;;;1707839;28;20225;-71
2022/06/03 05:35:11;;;;;;;6.50;5.88;;;17.90;97.20;;;;;;1710828;28;20205;-72
2022/06/03 05:36:41;;;;;;;6.20;5.53;;;17.90;97.20;;;;;;1714304;28;20206;-72
2022/06/03 05:38:04;;;;;;;5.80;5.30;;;18.00;97.20;;;;;;1713915;28;20284;-72
2022/06/03 05:39:38;;;;;;;5.70;5.30;;;18.00;97.20;;;;;;1714521;28;20217;-72
2022/06/03 05:40:37;;;;;;;6.43;5.82;;;18.00;97.20;;;;;;1714599;28;20615;-72
2022/06/03 05:43:50;;;;;;;6.25;5.65;;;18.10;97.20;;;;;;1714615;28;20204;-72
2022/06/03 05:44:57;;;;;;;6.68;6.07;;;18.20;97.20;;;;;;1711169;28;20237;-70
2022/06/03 05:46:03;;;;;;;5.93;5.43;;;18.20;97.20;;;;;;1714396;28;20206;-70
2022/06/03 05:47:02;;;;;;;6.55;5.82;;;18.30;97.20;;;;;;1714267;28;20210;-70
2022/06/03 05:47:57;;;;;;;8.60;6.05;;;18.30;97.20;;;;;;1714496;28;20206;-70
2022/06/03 05:49:07;;;;;;;6.20;5.50;;;18.30;97.20;;;;;;1714476;28;20681;-69
2022/06/03 05:50:05;;;;;;;6.07;5.57;;;18.40;97.20;;;;;;1714502;28;20209;-70
2022/06/03 05:51:07;;;;;;;6.03;5.57;;;18.40;97.20;;;;;;1713933;28;20559;-70
2022/06/03 05:52:24;;;;;;;6.22;5.65;;;18.50;97.20;;;;;;1714383;28;20210;-72
2022/06/03 05:53:32;;;;;;;5.82;5.32;;;18.50;97.20;;;;;;1714574;28;20210;-71
2022/06/03 05:54:38;;;;;;;5.65;5.25;;;18.60;97.20;;;;;;1714014;28;20202;-72
2022/06/03 05:55:39;;;;;;;6.15;5.55;;;18.60;97.20;;;;;;1712781;28;20198;-73
2022/06/03 05:56:45;;;;;;;5.90;5.50;;;18.70;97.20;;;;;;1712664;28;20205;-72
2022/06/03 05:57:39;;;;;;;6.35;5.80;;;18.70;97.20;;;;;;1713514;28;20210;-70
2022/06/03 05:58:45;;;;;;;6.03;5.53;;;18.80;97.20;;;;;;1713939;28;20225;-71
2022/06/03 05:59:55;;;;;;;6.20;5.40;;;18.80;97.20;;;;;;1713545;28;20213;-70
2022/06/03 06:00:59;;;;;;;6.22;5.80;;;18.80;97.20;;;;;;1710523;28;20254;-71
2022/06/03 06:02:10;;;;;;;5.60;5.20;;;18.90;97.20;;;;;;1713385;28;20568;-70
2022/06/03 06:03:18;;;;;;;5.60;5.20;;;18.90;97.20;;;;;;1712896;28;20190;-70
2022/06/03 06:04:20;;;;;;;6.53;5.93;;;19.00;97.20;;;;;;1713946;28;20212;-70
2022/06/03 06:05:31;;;;;;;6.53;6.03;;;19.00;97.20;;;;;;1709644;28;20213;-70
2022/06/03 06:06:31;;;;;;;6.60;6.00;;;19.10;97.20;;;;;;1714290;28;20601;-72
2022/06/03 06:07:32;;;;;;;6.65;6.15;;;19.10;97.20;;;;;;1712581;28;20204;-72
2022/06/03 06:08:30;;;;;;;5.80;5.40;;;19.10;97.20;;;;;;1710552;28;20202;-73
2022/06/03 06:09:39;;;;;;;6.50;5.60;;;19.20;97.20;;;;;;1707636;28;20293;-72
2022/06/03 06:10:44;;;;;;;6.32;5.72;;;19.20;97.20;;;;;;1707650;28;20207;-72
2022/06/03 06:11:46;;;;;;;6.68;6.07;;;19.30;97.20;;;;;;1707563;28;20241;-72
2022/06/03 06:12:48;;;;;;;6.60;5.95;;;19.30;97.20;;;;;;1707463;28;20652;-72
2022/06/03 06:14:05;;;;;;;6.63;6.13;;;19.30;97.20;;;;;;1707606;28;20206;-72
2022/06/03 06:15:17;;;;;;;6.53;6.03;;;19.40;97.20;;;;;;1712396;28;20662;-72
2022/06/03 06:16:15;;;;;;;6.80;6.10;;;19.40;97.20;;;;;;1714110;28;20213;-72
2022/06/03 06:17:26;;;;;;;6.47;5.97;;;19.50;97.20;;;;;;1713851;28;20205;-72
2022/06/03 06:18:29;;;;;;;6.95;6.35;;;19.50;97.20;;;;;;1713578;28;20194;-72
2022/06/03 06:19:37;;;;;;;6.90;6.40;;;19.60;97.20;;;;;;1713580;28;20202;-72
2022/06/03 06:20:45;;;;;;;8.07;6.28;;;19.60;97.20;;;;;;1714413;28;20206;-72
2022/06/03 06:21:56;;;;;;;6.72;6.20;;;19.60;97.20;;;;;;1714288;28;20234;-72
2022/06/03 06:22:49;;;;;;;6.22;5.80;;;19.70;97.20;;;;;;1714350;28;20206;-72
2022/06/03 06:23:46;;;;;;;7.38;6.68;;;19.70;97.20;;;;;;1714226;28;20205;-72
2022/06/03 06:24:50;;;;;;;6.78;6.18;;;19.70;97.20;;;;;;1714101;28;20213;-72
2022/06/03 06:25:56;;;;;;;6.70;6.20;;;19.70;97.20;;;;;;1714226;28;20285;-72
2022/06/03 06:27:30;;;;;;;6.53;5.93;;;19.80;97.20;;;;;;1713974;28;20616;-72
2022/06/03 06:28:43;;;;;;;6.65;6.05;;;19.90;97.20;;;;;;1703698;28;20223;-72
2022/06/03 06:30:03;;;;;;;5.90;5.40;;;19.90;97.20;;;;;;1714224;28;20198;-72
2022/06/03 06:31:34;;;;;;;9.13;6.05;;;20.00;97.20;;;;;;1714301;28;20230;-72
2022/06/03 06:32:36;;;;;;;6.70;6.10;;;20.00;97.20;;;;;;1714133;28;20226;-72
2022/06/03 06:34:06;;;;;;;6.57;5.95;;;20.10;97.20;;;;;;1714241;28;20202;-72
2022/06/03 06:37:12;;;;;;;12.02;7.55;;;20.20;97.20;;;;;;1753746;28;20590;-71
2022/06/03 06:38:09;;;;;;;7.85;7.15;;;20.30;97.20;;;;;;1753912;28;20209;-71
2022/06/03 06:39:10;;;;;;;9.05;7.35;;;20.30;97.20;;;;;;1753983;28;20247;-71
2022/06/03 06:40:16;;;;;;;7.88;7.18;;;20.30;97.20;;;;;;1754097;28;20661;-71
2022/06/03 06:41:31;;;;;;;9.13;8.43;;;20.40;97.20;;;;;;1754034;28;20293;-71
2022/06/03 06:42:37;;;;;;;9.20;8.38;;;20.40;97.20;;;;;;1753900;28;20771;-71
2022/06/03 06:43:37;;;;;;;10.27;7.40;;;20.40;97.20;;;;;;1754133;28;20198;-71
2022/06/03 06:44:35;;;;;;;8.18;7.43;;;20.50;97.20;;;;;;1753301;28;20202;-70
2022/06/03 06:45:35;;;;;;;8.25;7.40;;;20.50;97.20;;;;;;1750823;28;20209;-71
2022/06/03 06:46:35;;;;;;;8.65;7.22;;;20.50;97.20;;;;;;1747057;28;20222;-71
2022/06/03 06:47:32;;;;;;;7.05;6.55;;;20.60;97.20;;;;;;1747009;28;20229;-71
2022/06/03 06:48:36;;;;;;;7.15;6.50;;;20.60;97.20;;;;;;1746943;28;20198;-71
2022/06/03 06:49:33;;;;;;;6.65;6.05;;;20.60;97.20;;;;;;1747072;28;20213;-71
2022/06/03 06:50:29;;;;;;;7.43;6.72;;;20.60;97.20;;;;;;1770877;22;20268;-73
2022/06/03 06:51:51;;;;;;;7.32;6.35;;;20.70;97.20;;;;;;1745558;28;20686;-70
2022/06/03 06:52:53;;;;;;;6.97;6.38;;;20.70;97.20;;;;;;1745761;28;20281;-70
2022/06/03 06:53:53;;;;;;;7.20;6.63;;;20.70;97.20;;;;;;1747052;28;20612;-70
2022/06/03 06:55:00;;;;;;;6.93;6.40;;;20.70;97.20;;;;;;1746608;28;20231;-70
2022/06/03 06:55:55;;;;;;;7.78;7.18;;;20.70;97.20;;;;;;1746860;28;20225;-70
2022/06/03 06:56:52;;;;;;;6.95;6.40;;;20.80;97.20;;;;;;1746446;28;20210;-70
2022/06/03 06:57:46;;;;;;;7.70;6.78;;;20.80;97.20;;;;;;1746980;28;20685;-70
2022/06/03 06:58:45;;;;;;;8.20;7.30;;;20.80;97.20;;;;;;1746928;28;20579;-70
2022/06/03 06:59:39;;;;;;;8.05;7.43;;;20.80;97.20;;;;;;1746934;28;20209;-70
2022/06/03 07:00:36;;;;;;;9.98;7.28;;;20.80;97.20;;;;;;1745256;28;20201;-70
2022/06/03 07:01:31;;;;;;;7.43;6.75;;;20.90;97.20;;;;;;1740017;28;20207;-70
2022/06/03 07:02:28;;;;;;;8.68;7.78;;;20.90;97.20;;;;;;1740076;28;20734;-70
2022/06/03 07:03:28;;;;;;;8.10;7.03;;;20.90;97.20;;;;;;1740032;28;20679;-70
2022/06/03 07:04:25;;;;;;;6.95;6.20;;;20.90;97.20;;;;;;1740067;28;20203;-70
2022/06/03 07:05:22;;;;;;;6.93;6.22;;;21.00;97.20;;;;;;1739789;28;20214;-70
2022/06/03 07:06:18;;;;;;;7.57;6.63;;;21.00;97.20;;;;;;1740108;28;20202;-70
2022/06/03 07:07:18;;;;;;;8.15;7.15;;;21.10;97.20;;;;;;1739446;28;20200;-70
2022/06/03 07:08:17;;;;;;;8.15;7.45;;;21.10;97.20;;;;;;1740119;28;20214;-70
2022/06/03 07:09:31;;;;;;;8.10;7.40;;;21.10;97.20;;;;;;1740055;28;20254;-70
2022/06/03 07:10:26;;;;;;;7.35;6.13;;;21.20;97.20;;;;;;1739914;28;20302;-70
2022/06/03 07:11:22;;;;;;;7.43;6.22;;;21.20;97.20;;;;;;1740067;28;20211;-69
2022/06/03 07:12:15;;;;;;;7.47;6.75;;;21.30;97.20;;;;;;1740135;28;20203;-70
2022/06/03 07:13:11;;;;;;;6.63;5.93;;;21.30;97.20;;;;;;1739903;28;20203;-70
2022/06/03 07:14:07;;;;;;;6.70;6.10;;;21.40;97.20;;;;;;1740001;28;20238;-70
2022/06/03 07:15:05;;;;;;;7.03;6.43;;;21.50;97.20;;;;;;1739794;28;20191;-69
2022/06/03 07:16:04;;;;;;;6.30;5.80;;;21.60;97.20;;;;;;1740026;28;20199;-70
2022/06/03 07:19:49;;;;;;;7.22;6.60;;;21.90;97.20;;;;;;1740011;28;20218;-70
2022/06/03 07:20:50;;;;;;;7.97;7.43;;;21.90;97.20;;;;;;1739878;28;20258;-70
2022/06/03 07:22:01;;;;;;;6.82;5.95;;;22.00;97.20;;;;;;1740000;28;20374;-70
2022/06/03 07:22:55;;;;;;;7.47;6.20;;;22.00;97.20;;;;;;1739933;28;20203;-70
2022/06/03 07:23:51;;;;;;;13.38;5.72;;;22.10;97.20;;;;;;1739886;28;20249;-70
2022/06/03 07:24:49;;;;;;;8.32;5.82;;;22.10;97.20;;;;;;1739616;28;20264;-70
2022/06/03 07:25:46;;;;;;;6.25;5.75;;;22.20;97.20;;;;;;1739986;28;20542;-70
2022/06/03 07:26:40;;;;;;;6.72;5.90;;;22.30;97.20;;;;;;1739638;28;20200;-70
2022/06/03 07:27:44;;;;;;;6.60;5.72;;;22.30;97.20;;;;;;1739856;28;20195;-70
2022/06/03 07:28:45;;;;;;;7.05;6.35;;;22.40;97.20;;;;;;1739911;28;20659;-70
2022/06/03 07:29:42;;;;;;;6.88;6.28;;;22.60;97.20;;;;;;1739900;28;20203;-70
2022/06/03 07:30:41;;;;;;;7.80;6.10;;;22.70;97.20;;;;;;1739800;28;20203;-70
2022/06/03 07:31:40;;;;;;;7.05;6.43;;;22.80;97.20;;;;;;1739875;28;20214;-70
2022/06/03 07:32:37;;;;;;;7.13;6.53;;;22.90;97.20;;;;;;1739937;28;20203;-71
2022/06/03 07:33:40;;;;;;;7.97;7.18;;;23.00;97.20;;;;;;1739866;28;20227;-70
2022/06/03 07:34:38;;;;;;;8.30;7.43;;;23.10;97.20;;;;;;1739862;28;20199;-70
2022/06/03 07:35:37;;;;;;;7.00;6.30;;;23.20;97.20;;;;;;1739743;28;20291;-70
2022/06/03 07:36:36;;;;;;;7.07;6.30;;;23.20;97.20;;;;;;1739721;28;20702;-70
2022/06/03 07:37:34;;;;;;;6.90;6.32;;;23.20;97.20;;;;;;1739874;28;20203;-69
2022/06/03 07:38:35;;;;;;;7.15;6.45;;;23.30;97.20;;;;;;1739718;28;20227;-70
2022/06/03 07:39:37;;;;;;;7.15;6.45;;;23.30;97.20;;;;;;1739823;28;20702;-70
2022/06/03 07:40:35;;;;;;;7.07;6.43;;;23.30;97.20;;;;;;1739776;28;20210;-70
2022/06/03 07:41:33;;;;;;;6.65;6.15;;;23.30;97.20;;;;;;1739829;28;20210;-70
2022/06/03 07:42:38;;;;;;;6.85;6.25;;;23.30;97.20;;;;;;1739791;28;20250;-70
2022/06/03 07:43:37;;;;;;;8.18;7.38;;;23.30;97.20;;;;;;1739795;28;20204;-71
2022/06/03 07:44:39;;;;;;;7.00;6.50;;;23.40;97.20;;;;;;1739753;28;20204;-70
2022/06/03 07:45:41;;;;;;;6.93;6.22;;;23.30;97.20;;;;;;1738924;28;20199;-70
2022/06/03 07:46:41;;;;;;;6.50;5.90;;;23.30;97.20;;;;;;1739735;28;20283;-70
2022/06/03 07:47:34;;;;;;;9.57;5.80;;;23.30;97.20;;;;;;1737625;28;20250;-70
2022/06/03 07:48:29;;;;;;;5.82;5.32;;;23.30;97.20;;;;;;1734971;28;20212;-70
2022/06/03 07:49:22;;;;;;;5.85;5.20;;;23.40;97.20;;;;;;1735229;28;20208;-70
2022/06/03 07:50:18;;;;;;;6.75;5.65;;;23.50;97.20;;;;;;1735216;28;20199;-70
2022/06/03 07:51:20;;;;;;;6.25;5.63;;;23.50;97.20;;;;;;1734998;28;20235;-70
2022/06/03 07:52:23;;;;;;;5.53;5.03;;;23.60;97.20;;;;;;1735162;28;20200;-71
2022/06/03 07:53:19;;;;;;;4.95;4.55;;;23.70;97.20;;;;;;1735306;28;20207;-70
2022/06/03 07:54:14;;;;;;;6.10;5.60;;;23.70;97.20;;;;;;1735127;28;20200;-69
2022/06/03 07:55:13;;;;;;;5.90;5.30;;;23.80;97.20;;;;;;1734847;28;20208;-70
2022/06/03 07:56:05;;;;;;;5.22;4.82;;;23.80;97.20;;;;;;1735099;28;20203;-70
2022/06/03 07:57:04;;;;;;;6.53;5.72;;;23.80;97.20;;;;;;1734551;28;20234;-70
2022/06/03 07:58:02;;;;;;;5.60;5.10;;;23.80;97.20;;;;;;1734956;28;20279;-70
2022/06/03 07:58:56;;;;;;;6.30;5.80;;;23.80;97.20;;;;;;1735195;28;20203;-70
2022/06/03 07:59:48;;;;;;;8.23;5.80;;;23.80;97.20;;;;;;1735099;28;20279;-70
2022/06/03 08:00:39;;;;;;;6.20;5.70;;;23.80;97.20;;;;;;1735051;28;20239;-70
2022/06/03 08:01:35;;;;;;;6.50;5.90;;;23.80;97.20;;;;;;1735025;28;20291;-71
2022/06/03 08:02:27;;;;;;;6.60;5.90;;;23.80;97.20;;;;;;1735031;28;20211;-71
2022/06/03 08:03:21;;;;;;;6.38;5.78;;;23.80;97.20;;;;;;1735113;28;20199;-70
2022/06/03 08:04:25;;;;;;;6.78;6.18;;;23.80;97.20;;;;;;1735071;28;20216;-70
2022/06/03 08:05:21;;;;;;;6.32;5.72;;;23.90;97.20;;;;;;1734864;28;20271;-70
2022/06/03 08:06:12;;;;;;;6.03;5.53;;;23.90;97.20;;;;;;1735068;28;20247;-70
2022/06/03 08:11:00;;;;;;;9.25;6.47;;;24.00;97.20;;;;;;1735025;28;20207;-70
2022/06/03 08:11:53;;;;;;;14.20;12.82;;;24.00;97.20;;;;;;1735042;28;20204;-70
2022/06/03 08:12:45;;;;;;;9.15;8.35;;;24.10;97.20;;;;;;1735072;28;20206;-70
2022/06/03 08:13:49;;;;;;;9.70;7.75;;;24.10;97.20;;;;;;1734989;28;20212;-71
2022/06/03 08:14:40;;;;;;;8.00;7.18;;;24.20;97.20;;;;;;1735042;28;20208;-70
2022/06/03 08:15:35;;;;;;;9.57;7.25;;;24.20;97.20;;;;;;1734729;28;20270;-71
2022/06/03 08:16:34;;;;;;;7.32;6.78;;;24.30;97.20;;;;;;1734997;28;20200;-70
2022/06/03 08:17:26;;;;;;;7.85;7.15;;;24.30;97.20;;;;;;1734998;28;20234;-71
2022/06/03 08:18:19;;;;;;;9.00;8.20;;;24.40;97.20;;;;;;1734892;28;20204;-70
2022/06/03 08:19:15;;;;;;;10.77;9.73;;;24.40;97.20;;;;;;1735001;28;20208;-70
2022/06/03 08:20:06;;;;;;;8.75;7.78;;;24.50;97.20;;;;;;1734963;28;20211;-70
2022/06/03 08:21:00;;;;;;;7.47;6.88;;;24.50;97.20;;;;;;1734969;28;20212;-71
2022/06/03 08:21:54;;;;;;;6.38;5.78;;;24.50;97.20;;;;;;1734910;28;20211;-70
2022/06/03 08:22:45;;;;;;;8.85;7.80;;;24.60;97.20;;;;;;1735008;28;20581;-70
2022/06/03 08:23:39;;;;;;;6.90;6.40;;;24.60;97.20;;;;;;1735006;28;20202;-70
2022/06/03 08:24:33;;;;;;;7.30;6.60;;;24.70;97.20;;;;;;1734993;28;20199;-70
2022/06/03 08:25:28;;;;;;;7.35;6.75;;;24.70;97.20;;;;;;1734707;28;20192;-70
2022/06/03 08:26:23;;;;;;;6.00;5.32;;;24.80;97.20;;;;;;1734895;28;20200;-70
2022/06/03 08:27:20;;;;;;;6.95;5.75;;;24.80;97.20;;;;;;1734641;28;20643;-71
2022/06/03 08:28:16;;;;;;;5.70;5.20;;;24.90;97.20;;;;;;1734873;28;20239;-70
2022/06/03 08:29:13;;;;;;;5.70;5.20;;;25.00;97.20;;;;;;1734844;28;20287;-69
2022/06/03 08:30:07;;;;;;;10.00;8.45;;;25.00;97.20;;;;;;1734944;28;20283;-70
2022/06/03 08:31:02;;;;;;;10.02;6.97;;;25.10;97.20;;;;;;1734798;28;20371;-70
2022/06/03 08:31:55;;;;;;;9.88;8.88;;;25.20;97.20;;;;;;1734922;28;20208;-71
2022/06/03 08:32:50;;;;;;;7.25;6.65;;;25.30;97.20;;;;;;1734895;28;20556;-70
2022/06/03 08:33:45;;;;;;;6.70;6.00;;;25.40;97.20;;;;;;1734875;28;20287;-70
2022/06/03 08:34:42;;;;;;;6.78;5.10;;;25.50;97.20;;;;;;1734957;28;20574;-70
2022/06/03 08:35:38;;;;;;;6.32;5.72;;;25.60;97.20;;;;;;1734698;28;20196;-70
2022/06/03 08:36:35;;;;;;;6.72;6.00;;;25.60;97.20;;;;;;1734827;28;20195;-71
2022/06/03 08:37:33;;;;;;;6.30;5.80;;;25.80;97.20;;;;;;1734897;28;20200;-70
2022/06/03 08:38:30;;;;;;;5.85;5.35;;;25.90;97.20;;;;;;1734798;28;20690;-70
2022/06/03 08:39:25;;;;;;;7.15;6.28;;;26.00;97.20;;;;;;1734890;28;20208;-71
2022/06/03 08:40:27;;;;;;;8.68;6.55;;;26.10;97.20;;;;;;1734936;28;20574;-71
2022/06/03 08:41:39;;;;;;;6.22;5.80;;;26.20;97.20;;;;;;1734560;28;20207;-71
2022/06/03 08:42:35;;;;;;;5.93;5.40;;;26.40;97.20;;;;;;1734848;28;20204;-70
2022/06/03 08:43:33;;;;;;;6.50;4.78;;;26.50;97.20;;;;;;1734815;28;20270;-71
2022/06/03 08:44:34;;;;;;;6.00;5.50;;;26.70;97.20;;;;;;1734905;28;20211;-70
2022/06/03 08:45:41;;;;;;;5.93;5.43;;;26.80;97.20;;;;;;1734585;28;20224;-70
2022/06/03 08:46:37;;;;;;;7.20;6.70;;;26.80;97.20;;;;;;1734523;28;20660;-70
2022/06/03 08:47:37;;;;;;;7.15;6.65;;;26.70;97.20;;;;;;1734838;28;20192;-70
2022/06/03 08:48:33;;;;;;;6.63;6.03;;;26.60;97.20;;;;;;1734736;28;20286;-70
2022/06/03 08:49:28;;;;;;;7.13;6.20;;;26.50;97.20;;;;;;1734804;28;20231;-70
2022/06/03 08:50:31;;;;;;;5.63;5.13;;;26.40;97.20;;;;;;1734816;28;20660;-70
2022/06/03 08:51:28;;;;;;;5.80;5.30;;;26.30;97.20;;;;;;1734850;28;20566;-71
2022/06/03 08:52:26;;;;;;;6.03;5.53;;;26.20;97.20;;;;;;1734846;28;20261;-70
2022/06/03 08:53:23;;;;;;;6.70;6.00;;;26.20;97.20;;;;;;1734832;28;20207;-71
2022/06/03 08:54:21;;;;;;;5.47;4.97;;;26.10;97.20;;;;;;1734784;28;20576;-70
2022/06/03 08:55:35;;;;;;;6.30;5.72;;;26.10;97.20;;;;;;1734499;28;20200;-70
2022/06/03 08:56:33;;;;;;;6.38;5.78;;;26.10;97.20;;;;;;1734655;28;20199;-70
2022/06/03 08:57:33;;;;;;;5.93;5.32;;;26.10;97.20;;;;;;1734705;28;20253;-70
2022/06/03 08:58:29;;;;;;;6.20;5.60;;;26.10;97.20;;;;;;1734689;28;20656;-71
2022/06/03 08:59:27;;;;;;;6.63;6.03;;;26.10;97.20;;;;;;1734191;28;20675;-70
2022/06/03 09:00:21;;;;;;;6.25;5.65;;;26.10;97.20;;;;;;1734505;28;20234;-71
2022/06/03 09:01:21;;;;;;;5.63;5.03;;;26.10;97.20;;;;;;1734675;28;20204;-70
2022/06/03 09:02:20;;;;;;;5.18;4.50;;;26.10;97.20;;;;;;1734769;28;20656;-70
2022/06/03 09:03:14;;;;;;;5.30;4.90;;;26.20;97.20;;;;;;1734720;28;20223;-71
2022/06/03 09:04:15;;;;;;;5.65;5.15;;;26.20;97.20;;;;;;1734654;28;20211;-71
2022/06/03 09:05:12;;;;;;;6.38;5.53;;;26.30;97.20;;;;;;1734399;28;20204;-70
2022/06/03 09:06:11;;;;;;;7.47;5.63;;;26.30;97.20;;;;;;1734760;28;20284;-71
2022/06/03 09:07:06;;;;;;;5.18;4.65;;;26.30;97.20;;;;;;1734553;28;20203;-71
2022/06/03 09:08:05;;;;;;;5.10;4.70;;;26.40;97.20;;;;;;1734656;28;20192;-71
2022/06/03 09:09:00;;;;;;;5.72;5.22;;;26.50;97.20;;;;;;1734643;28;20200;-70
2022/06/03 09:09:55;;;;;;;5.22;4.82;;;26.50;97.20;;;;;;1734644;28;20199;-70
2022/06/03 09:10:59;;;;;;;5.55;4.97;;;26.60;97.20;;;;;;1734565;28;20310;-71
2022/06/03 09:12:02;;;;;;;7.18;4.97;;;26.70;97.20;;;;;;1734718;28;20279;-71
2022/06/03 09:12:58;;;;;;;4.78;4.40;;;26.80;97.20;;;;;;1734680;28;20682;-70
2022/06/03 09:13:57;;;;;;;4.85;4.35;;;26.90;97.20;;;;;;1734712;28;20199;-70
2022/06/03 09:14:49;;;;;;;7.20;5.03;;;27.00;97.20;;;;;;1734643;28;20196;-70
2022/06/03 09:15:44;;;;;;;4.40;3.88;;;27.00;97.20;;;;;;1734088;28;20250;-71
2022/06/03 09:16:37;;;;;;;5.57;5.07;;;27.10;97.20;;;;;;1734356;28;20310;-70
2022/06/03 09:17:38;;;;;;;5.32;4.95;;;27.10;97.20;;;;;;1734488;28;20223;-71
2022/06/03 09:18:34;;;;;;;5.72;5.22;;;27.10;97.20;;;;;;1734528;28;20235;-71
2022/06/03 09:19:30;;;;;;;5.43;4.80;;;27.10;97.20;;;;;;1734659;28;20665;-70
2022/06/03 09:20:27;;;;;;;4.82;4.43;;;27.10;97.20;;;;;;1734586;28;20196;-70
2022/06/03 09:21:23;;;;;;;5.35;4.85;;;27.10;97.20;;;;;;1734652;28;20686;-71
2022/06/03 09:22:23;;;;;;;5.55;4.60;;;27.10;97.20;;;;;;1734660;28;20202;-71
2022/06/03 09:23:18;;;;;;;11.27;4.80;;;27.10;97.20;;;;;;1734573;28;20207;-70
2022/06/03 09:24:15;;;;;;;7.55;4.07;;;27.20;97.20;;;;;;1734545;28;20690;-71
2022/06/03 09:25:11;;;;;;;9.40;4.78;;;27.30;97.20;;;;;;1734259;28;20608;-70
2022/06/03 09:26:02;;;;;;;5.40;4.20;;;27.30;97.20;;;;;;1734496;28;20290;-71
2022/06/03 09:26:58;;;;;;;6.82;4.82;;;27.40;97.20;;;;;;1734321;28;20211;-70
2022/06/03 09:27:51;;;;;;;5.40;4.40;;;27.50;97.20;;;;;;1734457;28;20199;-71
2022/06/03 09:28:43;;;;;;;12.77;4.40;;;27.50;97.20;;;;;;1734581;28;20191;-71
2022/06/03 09:29:35;;;;;;;5.70;4.57;;;27.60;97.20;;;;;;1734496;28;20211;-70
2022/06/03 09:30:31;;;;;;;9.77;4.68;;;27.60;97.20;;;;;;1734439;28;20196;-71
2022/06/03 09:31:22;;;;;;;6.80;4.50;;;27.70;97.20;;;;;;1734495;28;20211;-71
2022/06/03 09:32:17;;;;;;;6.10;4.90;;;27.80;97.20;;;;;;1734534;28;20207;-70
2022/06/03 09:33:12;;;;;;;5.90;4.93;;;27.90;97.20;;;;;;1734592;28;20660;-71
2022/06/03 09:34:08;;;;;;;6.63;4.40;;;28.00;97.20;;;;;;1734502;28;20652;-70
2022/06/03 09:35:03;;;;;;;4.22;3.83;;;27.90;97.20;;;;;;1734324;28;20667;-71
2022/06/03 09:35:59;;;;;;;5.05;4.00;;;28.00;97.20;;;;;;1727793;28;20247;-71
2022/06/03 09:36:50;;;;;;;4.53;4.10;;;28.00;97.20;;;;;;1727421;28;20197;-71
2022/06/03 09:37:46;;;;;;;4.60;4.20;;;28.00;97.20;;;;;;1727505;28;20315;-71
2022/06/03 09:38:43;;;;;;;4.40;3.95;;;28.00;97.20;;;;;;1727762;28;20450;-70
2022/06/03 09:39:34;;;;;;;5.82;4.38;;;28.10;97.20;;;;;;1727752;28;20200;-70
2022/06/03 09:40:31;;;;;;;5.23;4.80;;;28.10;97.20;;;;;;1727465;28;20307;-70
2022/06/03 09:41:26;;;;;;;4.97;4.55;;;28.20;97.20;;;;;;1727664;28;20534;-70
2022/06/03 09:42:21;;;;;;;6.07;5.15;;;28.20;97.20;;;;;;1727687;28;20212;-71
2022/06/03 09:43:17;;;;;;;5.00;4.60;;;28.10;97.20;;;;;;1727841;28;20572;-71
2022/06/03 09:44:12;;;;;;;5.30;4.25;;;28.10;97.20;;;;;;1727573;28;20232;-71
2022/06/03 09:45:06;;;;;;;5.05;4.65;;;28.00;97.20;;;;;;1728110;28;20684;-71
2022/06/03 09:46:00;;;;;;;4.95;4.47;;;28.00;97.20;;;;;;1734335;28;20198;-71
2022/06/03 09:46:57;;;;;;;5.22;4.82;;;27.90;97.20;;;;;;1734211;28;20215;-70
2022/06/03 09:47:51;;;;;;;5.25;4.80;;;27.90;97.20;;;;;;1734354;28;20192;-71
2022/06/03 09:48:42;;;;;;;6.10;4.38;;;27.90;97.20;;;;;;1734398;28;20200;-70
2022/06/03 09:49:35;;;;;;;4.43;4.00;;;27.90;97.20;;;;;;1734356;28;20204;-71
2022/06/03 09:50:26;;;;;;;4.60;4.20;;;28.00;97.20;;;;;;1734247;28;20208;-71
2022/06/03 09:51:20;;;;;;;4.35;3.95;;;28.00;97.20;;;;;;1734476;28;20577;-71
2022/06/03 09:52:14;;;;;;;5.30;4.80;;;28.10;97.20;;;;;;1734383;28;20204;-71
2022/06/03 09:53:09;;;;;;;5.18;4.50;;;28.20;97.20;;;;;;1734344;28;20282;-71
2022/06/03 09:54:00;;;;;;;5.00;4.50;;;28.20;97.20;;;;;;1734441;28;20211;-71
2022/06/03 09:54:54;;;;;;;6.07;5.47;;;28.30;97.20;;;;;;1734354;28;20526;-71
2022/06/03 09:55:50;;;;;;;5.25;4.75;;;28.40;97.20;;;;;;1734111;28;20282;-71
2022/06/03 09:56:46;;;;;;;7.90;5.65;;;28.40;97.20;;;;;;1734191;28;20230;-71
2022/06/03 09:57:41;;;;;;;8.82;6.72;;;28.40;97.20;;;;;;1734440;28;20281;-70
2022/06/03 09:58:34;;;;;;;6.60;6.10;;;28.50;97.20;;;;;;1734301;28;20204;-70
2022/06/03 09:59:27;;;;;;;8.03;6.00;;;28.50;97.20;;;;;;1734376;28;20476;-70
2022/06/03 10:00:22;;;;;;;6.38;5.78;;;28.60;97.20;;;;;;1734358;28;20450;-70
2022/06/03 10:01:14;;;;;;;6.70;6.10;;;28.70;97.20;;;;;;1734361;28;20204;-71
2022/06/03 10:02:06;;;;;;;5.85;4.95;;;28.70;97.20;;;;;;1734310;28;20446;-71
2022/06/03 10:02:59;;;;;;;5.07;4.55;;;28.70;97.20;;;;;;1734359;28;20562;-71
2022/06/03 10:03:54;;;;;;;4.90;4.20;;;28.80;97.20;;;;;;1734279;28;20254;-71
2022/06/03 10:04:46;;;;;;;4.25;3.95;;;28.90;97.20;;;;;;1734355;28;20278;-71
2022/06/03 10:05:37;;;;;;;5.07;4.10;;;29.10;97.20;;;;;;1734022;28;20203;-71
2022/06/03 10:06:46;;;;;;;6.85;4.60;;;29.20;97.20;;;;;;1734283;28;20196;-71
2022/06/03 10:07:38;;;;;;;5.90;5.22;;;29.30;97.20;;;;;;1734368;28;20219;-70
2022/06/03 10:12:48;;;;;;;4.55;4.15;;;29.50;97.20;;;;;;1734217;28;20215;-70
2022/06/03 10:13:14;;;;;;;5.60;4.45;;;30.50;97.20;;;;;;1734221;28;20470;-70
2022/06/03 10:14:05;;;;;;;5.10;4.60;;;30.80;97.20;;;;;;1734361;28;20690;-71
2022/06/03 10:16:07;;;;;;;7.10;5.20;;;31.30;97.20;;;;;;1718522;28;20433;-71
2022/06/03 10:16:58;;;;;;;5.80;4.60;;;31.50;97.20;;;;;;1727304;28;20463;-71
2022/06/03 10:17:51;;;;;;;4.70;4.40;;;31.70;97.20;;;;;;1727281;28;20483;-71
2022/06/03 10:18:46;;;;;;;4.77;4.37;;;31.80;97.20;;;;;;1727512;28;20208;-70
2022/06/03 10:19:37;;;;;;;4.67;4.30;;;32.00;97.20;;;;;;1727472;28;20989;-71
2022/06/03 10:20:29;;;;;;;4.73;4.30;;;32.20;97.20;;;;;;1727274;28;20458;-71
2022/06/03 10:21:28;;;;;;;6.53;3.63;;;32.30;97.20;;;;;;1727539;28;20462;-71
2022/06/03 10:22:22;;;;;;;5.90;3.80;;;32.50;97.20;;;;;;1727567;28;20818;-70
2022/06/03 10:23:13;;;;;;;4.90;3.80;;;32.70;97.20;;;;;;1727391;28;20451;-70
2022/06/03 10:24:06;;;;;;;4.00;3.70;;;32.70;97.20;;;;;;1727294;28;20443;-71
2022/06/03 10:24:57;;;;;;;3.63;3.43;;;32.80;97.20;;;;;;1727478;28;20518;-71
2022/06/03 10:25:51;;;;;;;4.57;4.00;;;32.90;97.20;;;;;;1732254;28;20447;-71
2022/06/03 10:26:49;;;;;;;4.30;3.90;;;32.90;97.20;;;;;;1733887;28;20454;-71
2022/06/03 10:27:40;;;;;;;4.73;3.87;;;32.90;97.20;;;;;;1734214;28;20493;-71
2022/06/03 10:28:34;;;;;;;4.70;4.10;;;32.90;97.20;;;;;;1734141;28;20443;-71
2022/06/03 10:29:26;;;;;;;6.93;3.97;;;32.80;97.20;;;;;;1734260;28;20462;-71
2022/06/03 10:30:25;;;;;;;4.00;3.70;;;32.80;97.20;;;;;;1734210;28;20438;-70
2022/06/03 10:31:20;;;;;;;4.00;3.67;;;32.70;97.20;;;;;;1734211;28;20442;-70
2022/06/03 10:32:13;;;;;;;4.50;4.10;;;32.60;97.20;;;;;;1734229;28;20808;-70
2022/06/03 10:33:06;;;;;;;4.17;3.87;;;32.60;97.20;;;;;;1734135;28;20521;-71